Time;durP1;ratioP1;P1;durP2;ratioP2;P2;SDS_P1;SDS_P2;PMS_P1;PMS_P2;Temp;Humidity;BMP_temperature;BMP_pressure;BME280_temperature;BME280_humidity;BME280_pressure;Samples;Min_cycle;Max_cycle;Signal;HPM_P1;HPM_P2
2020/12/18 00:01:24;;;;;;;26.17;9.40;;;5.10;84.30;;;;;;5031398;28;20041;-65
2020/12/18 00:03:51;;;;;;;27.67;9.73;;;5.10;84.40;;;;;;5033671;28;20076;-66
2020/12/18 00:06:17;;;;;;;27.60;9.45;;;5.10;84.30;;;;;;5033409;28;20540;-65
2020/12/18 00:08:42;;;;;;;29.85;9.43;;;5.00;84.40;;;;;;5033397;28;20076;-66
2020/12/18 00:11:08;;;;;;;24.58;8.82;;;4.90;84.50;;;;;;5012790;28;20112;-66
2020/12/18 00:13:34;;;;;;;23.58;7.78;;;4.80;84.60;;;;;;5037620;28;20059;-66
2020/12/18 00:15:59;;;;;;;15.60;6.97;;;4.70;84.50;;;;;;5040878;28;20030;-65
2020/12/18 00:18:25;;;;;;;17.55;7.28;;;4.60;84.70;;;;;;5015121;28;20557;-65
2020/12/18 00:20:51;;;;;;;43.85;7.18;;;4.60;85.00;;;;;;5031447;28;20099;-66
2020/12/18 00:23:17;;;;;;;18.77;7.65;;;4.60;85.00;;;;;;5033358;28;20114;-65
2020/12/18 00:25:47;;;;;;;28.58;7.88;;;4.60;85.00;;;;;;5033237;28;20068;-65
2020/12/18 00:28:16;;;;;;;23.85;7.57;;;4.60;84.80;;;;;;5032533;28;20025;-66
2020/12/18 00:30:42;;;;;;;15.20;7.68;;;4.60;84.80;;;;;;5031932;28;20030;-65
2020/12/18 00:33:11;;;;;;;25.65;7.20;;;4.60;84.70;;;;;;5033270;28;20048;-66
2020/12/18 00:35:36;;;;;;;20.08;7.32;;;4.60;84.60;;;;;;5015900;28;20060;-65
2020/12/18 00:38:02;;;;;;;22.45;8.20;;;4.60;84.60;;;;;;5032799;28;20025;-65
2020/12/18 00:40:28;;;;;;;18.80;7.90;;;4.60;84.50;;;;;;5030269;28;20029;-65
2020/12/18 00:42:53;;;;;;;12.98;7.93;;;4.70;84.40;;;;;;5032309;28;20037;-65
2020/12/18 00:45:19;;;;;;;15.65;7.60;;;4.70;84.30;;;;;;5029448;28;20029;-65
2020/12/18 00:47:44;;;;;;;17.50;7.00;;;4.70;84.10;;;;;;5026644;28;20065;-66
2020/12/18 00:50:10;;;;;;;14.65;6.68;;;4.60;84.00;;;;;;5031767;28;20378;-65
2020/12/18 00:52:35;;;;;;;26.45;7.28;;;4.40;84.20;;;;;;5032204;28;20406;-65
2020/12/18 00:55:01;;;;;;;20.50;7.55;;;4.30;84.60;;;;;;5032136;28;20030;-65
2020/12/18 00:57:27;;;;;;;22.60;7.60;;;4.20;84.90;;;;;;5045327;22;20041;-89
2020/12/18 00:59:52;;;;;;;42.45;8.35;;;4.20;85.10;;;;;;5036154;28;20029;-90
2020/12/18 01:02:18;;;;;;;15.98;7.18;;;4.20;85.20;;;;;;5038362;28;20041;-89
2020/12/18 01:04:43;;;;;;;24.77;7.78;;;4.20;85.10;;;;;;5035632;28;20035;-89
2020/12/18 01:07:09;;;;;;;35.53;8.07;;;4.20;85.00;;;;;;5036410;28;20518;-90
2020/12/18 01:09:35;;;;;;;29.13;7.88;;;4.30;85.00;;;;;;5029413;28;20052;-90
2020/12/18 01:12:04;;;;;;;14.95;7.30;;;4.30;84.90;;;;;;5030381;28;20462;-89
2020/12/18 01:14:29;;;;;;;15.00;7.13;;;4.30;84.80;;;;;;5045172;28;20423;-89
2020/12/18 01:16:56;;;;;;;29.45;7.43;;;4.40;84.70;;;;;;5017349;28;20029;-89
2020/12/18 01:19:22;;;;;;;28.13;7.85;;;4.40;84.60;;;;;;5015719;28;20401;-89
2020/12/18 01:21:49;;;;;;;15.35;7.32;;;4.40;84.40;;;;;;5045040;28;20029;-89
2020/12/18 01:24:19;;;;;;;26.92;7.18;;;4.40;84.30;;;;;;5017444;28;20345;-89
2020/12/18 01:26:45;;;;;;;19.85;6.72;;;4.40;84.10;;;;;;5033806;28;20358;-89
2020/12/18 01:29:11;;;;;;;29.38;7.18;;;4.30;84.20;;;;;;5051231;28;20074;-90
2020/12/18 01:31:36;;;;;;;30.33;6.80;;;4.30;84.30;;;;;;5015553;28;20030;-89
2020/12/18 01:34:02;;;;;;;11.38;6.05;;;4.30;84.50;;;;;;5015844;28;20061;-90
2020/12/18 01:36:28;;;;;;;16.40;6.18;;;4.30;84.40;;;;;;5033293;28;20438;-90
2020/12/18 01:38:53;;;;;;;15.98;6.38;;;4.30;84.40;;;;;;5034607;28;20511;-90
2020/12/18 01:41:19;;;;;;;19.95;6.75;;;4.30;84.40;;;;;;5033969;28;20054;-89
2020/12/18 01:43:45;;;;;;;14.02;6.22;;;4.40;84.40;;;;;;5034384;28;20227;-90
2020/12/18 01:46:12;;;;;;;8.52;5.53;;;4.30;84.20;;;;;;5040460;28;20032;-89
2020/12/18 01:48:41;;;;;;;15.98;6.80;;;4.30;84.20;;;;;;5034879;28;20029;-89
2020/12/18 01:51:11;;;;;;;8.35;5.93;;;4.30;84.40;;;;;;5033158;28;20028;-89
2020/12/18 01:53:39;;;;;;;9.38;6.30;;;4.30;84.40;;;;;;5031088;28;20036;-90
2020/12/18 01:56:06;;;;;;;14.13;6.10;;;4.40;84.40;;;;;;5017409;28;20030;-89
2020/12/18 01:58:36;;;;;;;8.05;4.85;;;4.40;84.20;;;;;;5016007;28;20033;-89
2020/12/18 02:01:04;;;;;;;22.88;5.13;;;4.30;84.10;;;;;;5014698;28;20527;-89
2020/12/18 02:03:30;;;;;;;16.35;5.43;;;4.30;84.10;;;;;;5017689;28;20064;-89
2020/12/18 02:05:58;;;;;;;17.17;5.82;;;4.20;84.20;;;;;;5031016;28;20473;-90
2020/12/18 02:08:29;;;;;;;35.85;5.75;;;4.10;84.40;;;;;;5017980;28;20433;-89
2020/12/18 02:10:58;;;;;;;13.70;5.95;;;4.10;84.40;;;;;;5035248;28;20029;-89
2020/12/18 02:13:25;;;;;;;32.40;6.60;;;4.00;84.50;;;;;;5015070;28;20034;-89
2020/12/18 02:15:54;;;;;;;18.35;6.75;;;4.00;84.80;;;;;;5024863;28;20025;-90
2020/12/18 02:18:22;;;;;;;21.80;7.05;;;4.00;84.80;;;;;;5032373;28;20400;-89
2020/12/18 02:20:51;;;;;;;10.13;6.38;;;4.00;84.60;;;;;;5034558;28;20075;-89
2020/12/18 02:23:16;;;;;;;29.25;6.95;;;4.00;84.70;;;;;;5023109;28;20040;-89
2020/12/18 02:25:43;;;;;;;20.95;7.45;;;4.00;84.70;;;;;;5037864;28;20040;-89
2020/12/18 02:28:11;;;;;;;21.63;7.70;;;4.00;84.70;;;;;;5039720;28;20024;-89
2020/12/18 02:30:37;;;;;;;10.35;6.13;;;4.10;84.60;;;;;;5038905;28;20447;-89
2020/12/18 02:33:07;;;;;;;12.52;6.30;;;4.10;84.40;;;;;;5041839;28;20025;-90
2020/12/18 02:35:33;;;;;;;12.65;6.10;;;4.00;84.50;;;;;;5041394;28;20501;-89
2020/12/18 02:37:59;;;;;;;12.25;6.05;;;4.00;84.50;;;;;;5040608;28;20523;-90
2020/12/18 02:40:25;;;;;;;13.10;6.25;;;4.00;84.60;;;;;;5034238;28;20034;-88
2020/12/18 02:42:50;;;;;;;17.27;6.47;;;3.90;84.60;;;;;;5054069;28;20048;-88
2020/12/18 02:45:16;;;;;;;29.40;8.20;;;3.80;84.60;;;;;;5050618;28;20102;-90
2020/12/18 02:47:42;;;;;;;46.53;7.75;;;3.80;84.60;;;;;;5031263;28;20033;-89
2020/12/18 02:50:07;;;;;;;107.78;9.23;;;3.70;84.40;;;;;;5034972;28;20067;-91
2020/12/18 02:52:33;;;;;;;183.75;10.50;;;3.60;84.60;;;;;;5029552;28;20034;-87
2020/12/18 02:54:59;;;;;;;145.68;9.98;;;3.60;84.90;;;;;;5036903;28;20061;-90
2020/12/18 02:57:24;;;;;;;117.55;9.70;;;3.50;84.70;;;;;;5020309;28;20029;-90
2020/12/18 02:59:50;;;;;;;230.38;12.95;;;3.50;84.80;;;;;;5018212;28;20080;-91
2020/12/18 03:02:15;;;;;;;230.95;11.43;;;3.50;84.80;;;;;;5019093;28;20112;-90
2020/12/18 03:04:41;;;;;;;240.45;11.50;;;3.40;84.90;;;;;;5035324;28;20476;-90
2020/12/18 03:07:07;;;;;;;116.05;9.98;;;3.40;85.10;;;;;;5018825;28;20029;-91
2020/12/18 03:09:32;;;;;;;185.38;11.60;;;3.40;85.20;;;;;;5039634;28;20037;-89
2020/12/18 03:11:58;;;;;;;120.07;10.05;;;3.40;85.30;;;;;;5029182;28;20132;-90
2020/12/18 03:14:24;;;;;;;117.93;9.02;;;3.40;85.30;;;;;;5032930;28;20059;-90
2020/12/18 03:16:49;;;;;;;87.72;8.48;;;3.30;85.20;;;;;;5021741;28;20078;-90
2020/12/18 03:19:15;;;;;;;113.50;8.57;;;3.30;85.40;;;;;;5030126;28;20067;-90
2020/12/18 03:21:41;;;;;;;84.60;8.02;;;3.20;85.60;;;;;;5058285;28;20622;-90
2020/12/18 03:24:06;;;;;;;69.45;8.38;;;3.30;85.70;;;;;;5052048;28;20033;-90
2020/12/18 03:26:32;;;;;;;121.75;7.78;;;3.30;85.70;;;;;;5055951;28;20033;-88
2020/12/18 03:28:57;;;;;;;104.32;8.25;;;3.30;85.50;;;;;;5047703;28;20036;-90
2020/12/18 03:31:23;;;;;;;102.43;8.30;;;3.20;85.40;;;;;;5018940;28;20045;-89
2020/12/18 03:33:49;;;;;;;100.68;8.35;;;3.20;85.70;;;;;;5030599;28;20065;-90
2020/12/18 03:36:14;;;;;;;82.03;8.18;;;3.10;85.80;;;;;;5019508;28;20034;-90
2020/12/18 03:38:40;;;;;;;97.03;7.57;;;3.10;85.80;;;;;;5037431;28;20021;-90
2020/12/18 03:41:06;;;;;;;78.72;6.80;;;3.10;85.80;;;;;;5036535;28;20028;-89
2020/12/18 03:43:33;;;;;;;54.10;6.70;;;3.10;85.90;;;;;;5032818;28;20112;-89
2020/12/18 03:45:59;;;;;;;42.92;6.50;;;3.00;85.50;;;;;;5017455;28;20032;-90
2020/12/18 03:48:25;;;;;;;47.90;6.50;;;2.80;85.60;;;;;;5033572;28;20401;-90
2020/12/18 03:50:50;;;;;;;35.10;6.70;;;2.70;85.90;;;;;;5017554;28;20136;-89
2020/12/18 03:53:16;;;;;;;51.95;7.43;;;2.70;86.30;;;;;;5024882;28;20025;-90
2020/12/18 03:55:42;;;;;;;32.97;6.78;;;2.80;86.50;;;;;;5036545;28;20488;-89
2020/12/18 03:58:07;;;;;;;24.38;6.60;;;2.90;86.40;;;;;;5029726;28;20046;-90
2020/12/18 04:00:33;;;;;;;29.95;6.78;;;2.90;86.30;;;;;;5035430;28;20031;-89
2020/12/18 04:02:58;;;;;;;22.60;6.60;;;3.00;86.20;;;;;;5026541;28;20036;-89
2020/12/18 04:05:24;;;;;;;36.38;7.43;;;3.00;86.00;;;;;;5034235;28;20383;-90
2020/12/18 04:07:49;;;;;;;20.58;6.55;;;3.10;85.80;;;;;;5019428;28;20026;-90
2020/12/18 04:10:15;;;;;;;37.60;7.32;;;3.10;85.80;;;;;;5050042;28;20477;-89
2020/12/18 04:12:41;;;;;;;26.42;6.70;;;3.10;85.90;;;;;;5036882;28;20040;-90
2020/12/18 04:15:06;;;;;;;22.23;6.78;;;3.10;85.80;;;;;;5022471;28;20018;-90
2020/12/18 04:17:32;;;;;;;17.08;6.38;;;3.10;85.70;;;;;;5032960;28;20089;-88
2020/12/18 04:19:57;;;;;;;17.83;6.32;;;3.10;85.50;;;;;;5032913;28;20030;-89
2020/12/18 04:22:23;;;;;;;17.40;7.20;;;3.00;85.70;;;;;;5027410;28;20386;-89
2020/12/18 04:24:49;;;;;;;25.23;6.60;;;2.90;85.90;;;;;;5037226;28;20028;-89
2020/12/18 04:27:15;;;;;;;12.88;6.10;;;2.90;86.10;;;;;;5020279;28;20030;-90
2020/12/18 04:29:40;;;;;;;28.50;6.30;;;2.90;86.00;;;;;;5047462;28;20033;-90
2020/12/18 04:32:06;;;;;;;15.82;6.30;;;2.80;86.00;;;;;;5016627;28;20505;-89
2020/12/18 04:34:31;;;;;;;31.00;6.43;;;2.80;86.20;;;;;;5029898;28;20037;-90
2020/12/18 04:36:57;;;;;;;20.63;5.90;;;2.80;86.30;;;;;;5045039;28;20060;-89
2020/12/18 04:39:22;;;;;;;46.55;6.57;;;2.80;86.20;;;;;;5054666;28;20108;-90
2020/12/18 04:41:48;;;;;;;29.73;5.90;;;2.80;86.10;;;;;;5021745;28;20084;-90
2020/12/18 04:44:15;;;;;;;31.77;6.18;;;2.70;86.00;;;;;;5023796;28;20025;-90
2020/12/18 04:46:42;;;;;;;25.30;6.57;;;2.70;86.20;;;;;;5015569;28;20056;-90
2020/12/18 04:49:09;;;;;;;15.65;6.05;;;2.70;86.50;;;;;;5028127;28;20044;-89
2020/12/18 04:51:42;;;;;;;15.18;6.20;;;2.70;86.20;;;;;;5016789;28;20394;-89
2020/12/18 04:54:10;;;;;;;15.73;5.90;;;2.70;86.20;;;;;;5020177;28;20060;-90
2020/12/18 04:56:38;;;;;;;20.33;5.93;;;2.60;86.10;;;;;;5016945;28;20042;-90
2020/12/18 04:59:04;;;;;;;14.93;6.53;;;2.50;86.00;;;;;;5016681;28;20103;-89
2020/12/18 05:01:29;;;;;;;14.68;6.00;;;2.40;86.20;;;;;;5018715;28;20041;-88
2020/12/18 05:03:57;;;;;;;21.98;6.28;;;2.40;86.40;;;;;;5037575;28;20025;-90
2020/12/18 05:06:23;;;;;;;10.25;5.65;;;2.30;86.40;;;;;;5033900;28;20041;-90
2020/12/18 05:08:48;;;;;;;20.30;5.78;;;2.30;86.30;;;;;;5036799;28;20126;-91
2020/12/18 05:11:27;;;;;;;22.02;6.25;;;2.20;86.40;;;;;;5037650;28;20060;-89
2020/12/18 05:13:55;;;;;;;19.27;5.85;;;2.20;86.60;;;;;;5033628;28;20120;-90
2020/12/18 05:16:22;;;;;;;14.82;6.15;;;2.20;86.50;;;;;;5032054;28;20090;-89
2020/12/18 05:18:50;;;;;;;23.75;5.40;;;2.20;86.70;;;;;;5017258;28;20025;-89
2020/12/18 05:21:16;;;;;;;19.40;5.75;;;2.20;86.70;;;;;;5020783;28;20468;-89
2020/12/18 05:23:43;;;;;;;19.67;5.55;;;2.20;86.50;;;;;;5034981;28;20036;-89
2020/12/18 05:26:10;;;;;;;10.50;6.05;;;2.20;86.40;;;;;;5020936;28;20100;-89
2020/12/18 05:28:41;;;;;;;7.65;5.30;;;2.20;86.40;;;;;;5016310;28;20374;-89
2020/12/18 05:31:11;;;;;;;12.32;5.75;;;2.20;86.50;;;;;;5034251;28;20083;-90
2020/12/18 05:33:37;;;;;;;16.15;6.90;;;2.30;86.70;;;;;;5025792;28;20124;-89
2020/12/18 05:36:03;;;;;;;20.80;6.32;;;2.40;86.70;;;;;;5017717;28;21084;-89
2020/12/18 05:38:29;;;;;;;25.27;6.35;;;2.40;86.40;;;;;;5043906;28;20074;-90
2020/12/18 05:40:59;;;;;;;21.85;5.72;;;2.40;86.00;;;;;;5016822;28;20115;-90
2020/12/18 05:43:25;;;;;;;26.10;6.20;;;2.30;85.90;;;;;;5026273;28;20037;-89
2020/12/18 05:45:51;;;;;;;30.10;6.40;;;2.30;86.20;;;;;;5032018;28;20128;-90
2020/12/18 05:48:16;;;;;;;21.92;6.65;;;2.30;86.30;;;;;;5027331;28;20600;-90
2020/12/18 05:50:42;;;;;;;53.50;7.80;;;2.30;86.40;;;;;;5032843;28;20026;-90
2020/12/18 05:53:11;;;;;;;36.00;6.55;;;2.30;86.30;;;;;;5020161;28;20080;-90
2020/12/18 05:55:41;;;;;;;23.60;7.00;;;2.30;86.10;;;;;;5021751;28;20438;-87
2020/12/18 05:58:14;;;;;;;16.15;6.82;;;2.20;85.90;;;;;;5023125;28;20033;-91
2020/12/18 06:00:41;;;;;;;15.60;7.57;;;2.20;85.80;;;;;;5015651;28;20030;-89
2020/12/18 06:03:14;;;;;;;12.23;7.38;;;2.10;85.90;;;;;;5032816;28;20068;-88
2020/12/18 06:05:45;;;;;;;14.32;8.63;;;2.00;86.00;;;;;;5019340;28;20029;-87
2020/12/18 06:08:16;;;;;;;9.37;5.53;;;2.00;86.20;;;;;;5024358;28;20064;-89
2020/12/18 06:10:42;;;;;;;23.88;12.25;;;1.90;86.20;;;;;;5030901;28;20524;-89
2020/12/18 06:13:08;;;;;;;19.92;9.07;;;1.90;86.40;;;;;;5032371;28;20033;-88
2020/12/18 06:15:34;;;;;;;21.05;8.48;;;2.00;86.50;;;;;;5031739;28;20059;-88
2020/12/18 06:18:04;;;;;;;25.80;10.23;;;2.00;86.50;;;;;;5043441;28;20439;-88
2020/12/18 06:20:35;;;;;;;28.42;9.77;;;2.10;86.50;;;;;;5033219;28;20029;-89
2020/12/18 06:23:03;;;;;;;58.42;10.18;;;2.20;86.40;;;;;;5030223;28;20107;-88
2020/12/18 06:25:29;;;;;;;118.38;11.38;;;2.30;86.40;;;;;;5039694;28;20037;-88
2020/12/18 06:27:59;;;;;;;294.20;13.77;;;2.30;86.20;;;;;;5036469;28;20115;-88
2020/12/18 06:30:29;;;;;;;94.18;10.93;;;2.30;85.90;;;;;;5017406;28;20086;-89
2020/12/18 06:32:55;;;;;;;306.77;13.82;;;2.30;86.20;;;;;;5027450;28;20021;-90
2020/12/18 06:35:33;;;;;;;177.32;12.55;;;2.30;86.30;;;;;;5019078;28;20021;-89
2020/12/18 06:38:19;;;;;;;295.75;15.07;;;2.40;86.40;;;;;;5015401;28;20044;-88
2020/12/18 06:40:45;;;;;;;140.90;11.70;;;2.40;86.30;;;;;;5013650;28;20041;-90
2020/12/18 06:43:10;;;;;;;168.00;12.07;;;2.40;86.30;;;;;;5044865;28;20032;-90
2020/12/18 06:45:37;;;;;;;289.40;16.48;;;2.30;86.20;;;;;;5032409;28;20043;-90
2020/12/18 06:48:25;;;;;;;141.23;14.18;;;2.30;86.30;;;;;;5020810;28;20068;-91
2020/12/18 06:50:51;;;;;;;183.77;13.52;;;2.30;86.40;;;;;;5014083;28;20040;-90
2020/12/18 06:53:17;;;;;;;74.05;12.68;;;2.30;86.30;;;;;;5017901;28;20481;-89
2020/12/18 06:55:42;;;;;;;158.82;12.23;;;2.30;86.50;;;;;;5032458;28;20024;-89
2020/12/18 06:58:12;;;;;;;137.52;12.65;;;2.40;86.60;;;;;;5025246;28;20419;-89
2020/12/18 07:00:47;;;;;;;136.68;10.93;;;2.40;86.60;;;;;;5030646;28;20551;-90
2020/12/18 07:03:32;;;;;;;121.90;10.77;;;2.40;86.40;;;;;;5013572;28;20030;-91
2020/12/18 07:06:02;;;;;;;125.75;10.18;;;2.30;86.40;;;;;;5013580;28;20025;-89
2020/12/18 07:08:31;;;;;;;98.68;9.35;;;2.30;86.60;;;;;;5032595;28;20029;-90
2020/12/18 07:11:04;;;;;;;83.50;9.68;;;2.20;86.50;;;;;;5028576;28;20043;-89
2020/12/18 07:13:32;;;;;;;99.30;9.57;;;2.20;86.90;;;;;;5039247;28;20021;-91
2020/12/18 07:16:00;;;;;;;191.05;11.73;;;2.20;86.90;;;;;;5023908;28;20061;-90
2020/12/18 07:18:31;;;;;;;62.72;9.13;;;2.20;86.80;;;;;;5017614;28;20041;-90
2020/12/18 07:21:06;;;;;;;160.60;14.98;;;2.30;86.80;;;;;;5025847;28;20025;-90
2020/12/18 07:23:34;;;;;;;151.90;13.65;;;2.30;86.70;;;;;;5028506;28;20025;-89
2020/12/18 07:26:02;;;;;;;173.82;12.82;;;2.40;87.00;;;;;;5027467;28;20086;-91
2020/12/18 07:28:28;;;;;;;95.97;12.45;;;2.40;86.50;;;;;;5018242;28;20045;-91
2020/12/18 07:30:56;;;;;;;120.82;9.05;;;2.50;86.30;;;;;;5018750;28;20079;-90
2020/12/18 07:33:23;;;;;;;132.50;9.23;;;2.40;86.30;;;;;;5025978;28;20555;-89
2020/12/18 07:36:01;;;;;;;196.60;12.43;;;2.40;86.30;;;;;;5021261;28;20037;-91
2020/12/18 07:38:33;;;;;;;104.20;10.25;;;2.40;86.40;;;;;;5043122;28;20049;-90
2020/12/18 07:41:14;;;;;;;57.95;6.35;;;2.40;86.20;;;;;;5058412;28;20040;-91
2020/12/18 07:43:41;;;;;;;195.05;10.85;;;2.30;86.40;;;;;;5033374;28;20049;-90
2020/12/18 07:46:09;;;;;;;96.97;8.82;;;2.30;86.40;;;;;;5018965;28;20091;-92
2020/12/18 07:48:42;;;;;;;55.25;8.80;;;2.40;86.40;;;;;;5022749;28;20055;-92
2020/12/18 07:51:11;;;;;;;109.75;9.48;;;2.40;86.50;;;;;;5026130;28;20045;-92
2020/12/18 07:53:44;;;;;;;118.03;10.70;;;2.40;86.30;;;;;;5030908;28;20041;-90
2020/12/18 07:56:09;;;;;;;;;;;2.40;86.30;;;;;;5037499;28;20033;-91
2020/12/18 07:58:45;;;;;;;122.50;10.20;;;2.40;86.30;;;;;;5024670;28;19921;-92
2020/12/18 08:01:30;;;;;;;65.47;8.50;;;2.40;86.30;;;;;;5016636;28;20033;-91
2020/12/18 08:03:57;;;;;;;165.02;10.60;;;2.40;86.20;;;;;;5016804;28;20075;-90
2020/12/18 08:06:32;;;;;;;138.90;10.63;;;2.40;86.10;;;;;;5018064;28;20026;-90
2020/12/18 08:09:08;;;;;;;108.38;9.50;;;2.40;86.30;;;;;;5036058;28;20056;-90
2020/12/18 08:11:36;;;;;;;91.72;10.82;;;2.40;86.40;;;;;;5027317;28;20508;-91
2020/12/18 08:14:05;;;;;;;74.45;9.05;;;2.40;86.30;;;;;;5017971;28;20409;-91
2020/12/18 08:16:36;;;;;;;63.83;8.50;;;2.40;86.30;;;;;;5025056;28;20040;-90
2020/12/18 08:19:15;;;;;;;59.33;7.90;;;2.40;86.40;;;;;;5035327;28;20067;-90
2020/12/18 08:21:44;;;;;;;60.28;7.07;;;2.40;86.60;;;;;;5016869;28;20493;-90
2020/12/18 08:24:30;;;;;;;38.47;7.13;;;2.30;86.40;;;;;;5027148;28;20033;-91
2020/12/18 08:27:04;;;;;;;31.27;6.50;;;2.30;86.70;;;;;;5027091;28;20033;-90
2020/12/18 08:29:33;;;;;;;41.53;6.55;;;2.20;86.60;;;;;;5022743;28;20433;-91
2020/12/18 08:32:01;;;;;;;36.78;6.47;;;2.10;86.70;;;;;;5020778;28;20021;-91
2020/12/18 08:34:28;;;;;;;26.80;7.32;;;2.20;87.00;;;;;;5020408;28;20144;-88
2020/12/18 08:36:55;;;;;;;22.70;7.25;;;2.20;87.00;;;;;;5019203;28;20121;-90
2020/12/18 08:39:21;;;;;;;38.30;7.18;;;2.30;87.10;;;;;;5028989;28;20025;-91
2020/12/18 08:41:48;;;;;;;18.85;6.88;;;2.40;86.80;;;;;;5026475;28;20024;-89
2020/12/18 08:44:18;;;;;;;19.48;7.80;;;2.50;86.80;;;;;;5016550;28;20051;-91
2020/12/18 08:46:45;;;;;;;23.30;8.85;;;2.60;86.70;;;;;;5026145;28;20503;-92
2020/12/18 08:49:21;;;;;;;19.77;9.50;;;2.70;86.60;;;;;;5015900;28;20029;-93
2020/12/18 08:52:02;;;;;;;28.50;9.38;;;2.80;86.50;;;;;;5028281;28;20510;-90
2020/12/18 08:54:38;;;;;;;27.90;9.25;;;2.90;86.30;;;;;;5038001;28;20029;-89
2020/12/18 08:57:22;;;;;;;27.33;8.75;;;2.90;86.10;;;;;;5018814;28;20478;-90
2020/12/18 09:00:07;;;;;;;22.25;9.57;;;2.90;86.10;;;;;;5018106;28;20041;-90
2020/12/18 09:02:35;;;;;;;39.17;10.32;;;2.90;86.20;;;;;;5020673;28;20032;-91
2020/12/18 09:05:12;;;;;;;24.52;9.40;;;3.00;86.10;;;;;;5019081;28;20033;-89
2020/12/18 09:07:45;;;;;;;26.50;9.48;;;3.10;86.00;;;;;;5024030;28;20150;-92
2020/12/18 09:10:11;;;;;;;30.30;10.20;;;3.10;86.10;;;;;;5023483;28;20056;-91
2020/12/18 09:12:42;;;;;;;16.55;9.43;;;3.10;85.70;;;;;;5022610;28;20069;-91
2020/12/18 09:15:41;;;;;;;21.88;10.20;;;3.10;85.70;;;;;;5018199;28;20029;-90
2020/12/18 09:18:13;;;;;;;18.63;10.30;;;3.10;85.90;;;;;;5005262;28;20045;-91
2020/12/18 09:20:41;;;;;;;28.80;12.52;;;3.20;85.90;;;;;;5020975;28;20037;-91
2020/12/18 09:23:26;;;;;;;28.15;11.93;;;3.20;86.00;;;;;;5022902;28;20044;-91
2020/12/18 09:25:52;;;;;;;19.73;9.57;;;3.30;86.10;;;;;;5020206;28;20079;-92
2020/12/18 09:28:21;;;;;;;18.63;9.30;;;3.40;86.00;;;;;;5018484;28;20029;-92
2020/12/18 09:31:00;;;;;;;19.38;10.40;;;3.40;85.90;;;;;;5018879;28;20037;-91
2020/12/18 09:33:36;;;;;;;21.67;9.77;;;3.40;86.10;;;;;;5035251;28;20048;-91
2020/12/18 09:36:05;;;;;;;23.15;10.40;;;3.40;86.10;;;;;;5034780;28;20021;-91
2020/12/18 09:38:39;;;;;;;22.88;11.07;;;3.40;86.10;;;;;;5023088;28;20025;-92
2020/12/18 09:41:10;;;;;;;18.92;10.93;;;3.50;86.10;;;;;;5024982;28;20041;-92
2020/12/18 09:43:36;;;;;;;22.27;11.95;;;3.60;85.90;;;;;;5023405;28;20033;-92
2020/12/18 09:46:02;;;;;;;22.27;10.45;;;3.60;85.80;;;;;;5033659;28;20108;-92
2020/12/18 09:48:28;;;;;;;23.63;11.45;;;3.70;85.80;;;;;;5020180;28;20029;-92
2020/12/18 09:50:55;;;;;;;18.83;11.07;;;3.70;86.00;;;;;;5033818;28;20112;-91
2020/12/18 09:53:23;;;;;;;19.92;11.18;;;3.70;86.10;;;;;;5027060;28;20033;-92
2020/12/18 09:55:56;;;;;;;17.90;10.45;;;3.80;86.20;;;;;;5036579;28;20029;-93
2020/12/18 09:58:22;;;;;;;20.35;11.15;;;3.80;86.10;;;;;;5027308;28;20041;-92
2020/12/18 10:00:48;;;;;;;21.23;11.43;;;3.90;86.10;;;;;;5016361;28;20072;-92
2020/12/18 10:03:14;;;;;;;21.52;11.75;;;4.00;86.20;;;;;;5023937;28;20036;-91
2020/12/18 10:05:39;;;;;;;23.48;12.50;;;4.00;86.30;;;;;;5015741;28;20022;-91
2020/12/18 10:08:05;;;;;;;24.20;12.45;;;4.10;86.40;;;;;;5020381;28;20459;-92
2020/12/18 10:10:31;;;;;;;28.40;14.80;;;4.20;86.40;;;;;;5030768;28;20075;-92
2020/12/18 10:12:58;;;;;;;19.90;11.35;;;4.30;86.30;;;;;;5045057;28;20029;-92
2020/12/18 10:15:24;;;;;;;25.67;13.05;;;4.40;86.30;;;;;;5017790;28;20025;-92
2020/12/18 10:17:50;;;;;;;28.27;13.20;;;4.50;86.30;;;;;;5017810;28;20017;-92
2020/12/18 10:20:16;;;;;;;26.50;13.88;;;4.60;86.30;;;;;;5026353;28;20033;-91
2020/12/18 10:22:42;;;;;;;28.50;14.68;;;4.60;86.10;;;;;;5036726;28;20025;-92
2020/12/18 10:25:08;;;;;;;27.00;14.57;;;4.70;86.20;;;;;;5028745;28;20127;-92
2020/12/18 10:27:34;;;;;;;25.10;13.90;;;4.70;86.20;;;;;;5030856;28;20037;-91
2020/12/18 10:30:00;;;;;;;28.35;13.77;;;4.80;86.20;;;;;;5031107;28;20026;-92
2020/12/18 10:32:32;;;;;;;31.35;13.40;;;4.90;86.30;;;;;;5025484;28;20060;-91
2020/12/18 10:35:08;;;;;;;;;;;;;;;;;;;;;
2020/12/18 10:37:34;;;;;;;24.60;13.48;;;5.00;86.30;;;;;;5033229;28;20128;-91
2020/12/18 10:40:00;;;;;;;27.02;13.82;;;5.00;86.00;;;;;;5018051;28;20089;-92
2020/12/18 10:42:26;;;;;;;24.33;13.45;;;5.00;86.10;;;;;;5035199;28;20033;-92
2020/12/18 10:44:52;;;;;;;23.80;13.23;;;5.00;86.30;;;;;;5030245;28;20032;-92
2020/12/18 10:47:17;;;;;;;24.33;12.60;;;5.00;86.40;;;;;;5019630;28;20032;-91
2020/12/18 10:49:43;;;;;;;22.02;12.38;;;5.10;86.30;;;;;;5019831;28;20041;-92
2020/12/18 10:52:09;;;;;;;21.83;12.27;;;5.10;86.20;;;;;;5019241;28;20034;-91
2020/12/18 10:54:34;;;;;;;23.42;12.48;;;5.10;86.30;;;;;;5020478;28;20155;-92
2020/12/18 10:57:00;;;;;;;20.00;12.45;;;5.20;86.90;;;;;;5025910;28;20059;-92
2020/12/18 10:59:28;;;;;;;23.02;13.45;;;5.20;86.40;;;;;;5033575;28;20045;-91
2020/12/18 11:01:55;;;;;;;18.35;11.18;;;5.30;86.50;;;;;;5019458;28;20409;-92
2020/12/18 11:04:21;;;;;;;19.45;11.55;;;5.30;86.40;;;;;;5031508;28;20080;-91
2020/12/18 11:06:47;;;;;;;20.38;11.77;;;5.30;86.30;;;;;;5019930;28;20421;-91
2020/12/18 11:09:16;;;;;;;24.20;11.85;;;5.40;86.40;;;;;;5021293;28;20121;-91
2020/12/18 11:11:43;;;;;;;22.33;11.82;;;5.40;86.40;;;;;;5058993;28;20017;-89
2020/12/18 11:14:08;;;;;;;22.17;12.05;;;5.50;86.40;;;;;;5059390;28;20507;-92
2020/12/18 11:16:37;;;;;;;24.33;13.20;;;5.60;86.60;;;;;;5059222;28;20016;-92
2020/12/18 11:19:04;;;;;;;21.92;13.40;;;5.70;86.70;;;;;;5056315;28;20161;-91
2020/12/18 11:21:30;;;;;;;20.48;12.07;;;5.70;86.60;;;;;;5039012;28;20046;-91
2020/12/18 11:23:57;;;;;;;20.02;12.07;;;5.80;86.50;;;;;;5021786;28;20046;-92
2020/12/18 11:26:23;;;;;;;22.83;12.48;;;5.90;86.60;;;;;;5035993;28;20056;-91
2020/12/18 11:28:49;;;;;;;19.13;10.52;;;5.90;86.60;;;;;;5037896;28;20024;-91
2020/12/18 11:31:15;;;;;;;17.15;10.35;;;6.00;86.50;;;;;;5034269;28;20178;-92
2020/12/18 11:33:40;;;;;;;19.30;11.52;;;6.10;86.40;;;;;;5039464;28;20041;-92
2020/12/18 11:36:06;;;;;;;18.85;9.98;;;6.10;86.40;;;;;;5038118;28;20029;-91
2020/12/18 11:38:32;;;;;;;15.60;10.15;;;6.10;86.30;;;;;;5039740;28;20034;-92
2020/12/18 11:40:58;;;;;;;17.00;10.23;;;6.20;86.30;;;;;;5039621;28;20378;-92
2020/12/18 11:43:23;;;;;;;16.35;10.25;;;6.30;86.40;;;;;;5037533;28;20037;-91
2020/12/18 11:45:49;;;;;;;15.60;9.90;;;6.30;86.40;;;;;;5021027;28;20018;-91
2020/12/18 11:48:15;;;;;;;18.52;11.50;;;6.40;86.30;;;;;;5048452;28;20029;-91
2020/12/18 11:50:40;;;;;;;18.77;11.40;;;6.40;86.30;;;;;;5017340;28;20044;-91
2020/12/18 11:53:08;;;;;;;18.13;11.50;;;6.60;86.40;;;;;;5017392;28;20025;-91
2020/12/18 11:55:34;;;;;;;20.40;11.88;;;6.60;86.30;;;;;;5022682;28;20039;-92
2020/12/18 11:58:00;;;;;;;19.08;12.13;;;6.70;86.30;;;;;;5040883;28;20036;-92
2020/12/18 12:00:25;;;;;;;19.13;11.00;;;6.80;86.10;;;;;;5035777;28;20080;-91
2020/12/18 12:02:52;;;;;;;17.27;10.77;;;7.00;85.90;;;;;;5022407;28;20022;-93
2020/12/18 12:05:19;;;;;;;30.15;11.65;;;7.10;85.80;;;;;;5030132;28;20029;-92
2020/12/18 12:07:45;;;;;;;24.10;11.07;;;7.20;85.50;;;;;;5023579;28;20477;-92
2020/12/18 12:10:12;;;;;;;18.83;11.50;;;7.40;85.20;;;;;;5026841;28;20025;-93
2020/12/18 12:12:37;;;;;;;19.13;11.65;;;7.50;85.00;;;;;;5039184;28;20508;-92
2020/12/18 12:15:04;;;;;;;20.65;10.50;;;7.70;84.90;;;;;;5026648;28;20045;-92
2020/12/18 12:17:30;;;;;;;24.30;12.00;;;7.90;84.80;;;;;;5035325;28;20037;-92
2020/12/18 12:19:56;;;;;;;76.72;15.23;;;8.10;84.60;;;;;;5037406;28;20105;-90
2020/12/18 12:22:23;;;;;;;32.53;12.38;;;8.20;84.40;;;;;;5029555;28;20025;-92
2020/12/18 12:24:49;;;;;;;24.60;11.63;;;8.50;84.30;;;;;;5037798;28;20041;-92
2020/12/18 12:27:15;;;;;;;32.08;11.50;;;8.60;84.30;;;;;;5022901;28;20121;-93
2020/12/18 12:29:41;;;;;;;22.33;10.32;;;8.90;84.10;;;;;;5019415;28;20057;-92
2020/12/18 12:32:06;;;;;;;19.27;10.57;;;9.10;83.80;;;;;;5035672;28;20477;-91
2020/12/18 12:34:33;;;;;;;21.80;10.30;;;9.30;83.70;;;;;;5034788;28;20032;-93
2020/12/18 12:36:59;;;;;;;20.52;10.18;;;9.50;83.50;;;;;;5040360;28;20025;-92
2020/12/18 12:39:26;;;;;;;31.05;10.85;;;9.70;83.30;;;;;;5032701;28;20033;-92
2020/12/18 12:41:52;;;;;;;18.13;9.95;;;9.90;83.10;;;;;;5040910;28;20037;-93
2020/12/18 12:44:18;;;;;;;18.65;9.88;;;10.10;83.10;;;;;;5037382;28;20032;-93
2020/12/18 12:46:43;;;;;;;19.40;9.20;;;10.40;83.10;;;;;;5039508;28;20108;-92